Pomerene, Arizona
Current Conditions -  °F | °C
As of 1:56 PM on Friday 24 Oct 2014 (Local Time) from KALK Reporting Station
Light Rain Light Rain  
Wind Chill: 82°   Ceiling: Unl
Heat Index: 82°   Visibility: 10mi
Dew Point: 39°   Wind: 0mph
Humidity: 22%   Direction: NA
Pressure: 30.21"   Gusts: NA
Location:  32°N, 110.29°W
Report Text: KALK 242056Z AUTO 00000KT 10SM -RA CLR 28/04 A3021 RMK AO2 RAB52 SLP138 P0000 60000 T02780039 56022 TSNO
Loading
Personal Weather Stations






























Interactive Weather Map
Tropical Storm Tracking
New forecast layout! Learn more

10-Day Weather Forecast

Advertisements
Track Severe Weather on mobile